sensor_id;sensor_type;location;lat;lon;timestamp;pressure;altitude;pressure_sealevel;temperature;humidity
13612;BME280;6877;51.436;6.774;2023-02-10T00:01:35;103115.81;;;3.41;85.90
13612;BME280;6877;51.436;6.774;2023-02-10T00:04:02;103120.16;;;3.42;86.37
13612;BME280;6877;51.436;6.774;2023-02-10T00:06:30;103121.94;;;3.43;86.48
13612;BME280;6877;51.436;6.774;2023-02-10T00:08:59;103125.50;;;3.45;86.94
13612;BME280;6877;51.436;6.774;2023-02-10T00:11:27;103123.63;;;3.43;87.03
13612;BME280;6877;51.436;6.774;2023-02-10T00:14:15;103136.72;;;3.46;87.27
13612;BME280;6877;51.436;6.774;2023-02-10T00:16:41;103128.91;;;3.44;87.14
13612;BME280;6877;51.436;6.774;2023-02-10T00:19:08;103122.84;;;3.44;87.61
13612;BME280;6877;51.436;6.774;2023-02-10T00:21:35;103132.38;;;3.45;87.84
13612;BME280;6877;51.436;6.774;2023-02-10T00:24:02;103141.84;;;3.44;88.10
13612;BME280;6877;51.436;6.774;2023-02-10T00:26:29;103133.19;;;3.44;87.84
13612;BME280;6877;51.436;6.774;2023-02-10T00:28:55;103129.84;;;3.46;88.63
13612;BME280;6877;51.436;6.774;2023-02-10T00:31:22;103128.97;;;3.46;88.54
13612;BME280;6877;51.436;6.774;2023-02-10T00:33:49;103136.00;;;3.48;88.97
13612;BME280;6877;51.436;6.774;2023-02-10T00:36:15;103140.34;;;3.49;88.68
13612;BME280;6877;51.436;6.774;2023-02-10T00:38:42;103130.81;;;3.48;88.58
13612;BME280;6877;51.436;6.774;2023-02-10T00:41:14;103140.50;;;3.53;89.11
13612;BME280;6877;51.436;6.774;2023-02-10T00:43:41;103145.69;;;3.53;88.97
13612;BME280;6877;51.436;6.774;2023-02-10T00:46:14;103140.50;;;3.53;88.98
13612;BME280;6877;51.436;6.774;2023-02-10T00:48:41;103147.53;;;3.55;89.09
13612;BME280;6877;51.436;6.774;2023-02-10T00:51:07;103147.63;;;3.57;89.02
13612;BME280;6877;51.436;6.774;2023-02-10T00:53:34;103134.59;;;3.55;88.94
13612;BME280;6877;51.436;6.774;2023-02-10T00:56:01;103140.75;;;3.57;89.70
13612;BME280;6877;51.436;6.774;2023-02-10T00:58:28;103138.16;;;3.57;89.60
13612;BME280;6877;51.436;6.774;2023-02-10T01:00:55;103139.03;;;3.58;89.62
13612;BME280;6877;51.436;6.774;2023-02-10T01:03:22;103130.38;;;3.57;89.65
13612;BME280;6877;51.436;6.774;2023-02-10T01:05:49;103141.47;;;3.55;89.74
13612;BME280;6877;51.436;6.774;2023-02-10T01:08:16;103141.31;;;3.52;89.83
13612;BME280;6877;51.436;6.774;2023-02-10T01:10:43;103154.13;;;3.48;89.99
13612;BME280;6877;51.436;6.774;2023-02-10T01:13:12;103157.53;;;3.47;90.49
13612;BME280;6877;51.436;6.774;2023-02-10T01:15:43;103152.19;;;3.44;90.24
13612;BME280;6877;51.436;6.774;2023-02-10T01:18:10;103151.16;;;3.41;90.18
13612;BME280;6877;51.436;6.774;2023-02-10T01:20:39;103154.25;;;3.34;90.75
13612;BME280;6877;51.436;6.774;2023-02-10T01:23:11;103147.41;;;3.18;91.06
13612;BME280;6877;51.436;6.774;2023-02-10T01:25:38;103150.19;;;3.05;91.51
13612;BME280;6877;51.436;6.774;2023-02-10T01:28:05;103153.13;;;2.94;92.11
13612;BME280;6877;51.436;6.774;2023-02-10T01:30:32;103161.13;;;2.99;92.91
13612;BME280;6877;51.436;6.774;2023-02-10T01:32:59;103162.31;;;3.06;92.88
13612;BME280;6877;51.436;6.774;2023-02-10T01:35:26;103161.75;;;3.11;92.66
13612;BME280;6877;51.436;6.774;2023-02-10T01:37:53;103165.53;;;3.18;92.85
13612;BME280;6877;51.436;6.774;2023-02-10T01:40:21;103163.97;;;3.21;92.28
13612;BME280;6877;51.436;6.774;2023-02-10T01:42:48;103162.38;;;3.23;92.54
13612;BME280;6877;51.436;6.774;2023-02-10T01:47:42;103177.31;;;3.29;92.32
13612;BME280;6877;51.436;6.774;2023-02-10T01:50:09;103173.91;;;3.30;92.12
13612;BME280;6877;51.436;6.774;2023-02-10T01:52:37;103179.19;;;3.32;92.29
13612;BME280;6877;51.436;6.774;2023-02-10T01:55:10;103184.34;;;3.32;92.20
13612;BME280;6877;51.436;6.774;2023-02-10T01:57:40;103178.94;;;3.27;92.32
13612;BME280;6877;51.436;6.774;2023-02-10T02:00:09;103180.25;;;3.19;92.71
13612;BME280;6877;51.436;6.774;2023-02-10T02:02:37;103175.34;;;3.07;92.76
13612;BME280;6877;51.436;6.774;2023-02-10T02:05:06;103178.03;;;2.92;93.06
13612;BME280;6877;51.436;6.774;2023-02-10T02:07:35;103181.78;;;2.81;93.70
13612;BME280;6877;51.436;6.774;2023-02-10T02:10:04;103178.19;;;2.79;94.56
13612;BME280;6877;51.436;6.774;2023-02-10T02:12:47;103180.63;;;2.76;94.91
13612;BME280;6877;51.436;6.774;2023-02-10T02:18:47;103184.81;;;2.74;95.22
13612;BME280;6877;51.436;6.774;2023-02-10T02:26:55;103182.56;;;2.47;96.10
13612;BME280;6877;51.436;6.774;2023-02-10T02:39:11;103200.59;;;2.15;98.27
13612;BME280;6877;51.436;6.774;2023-02-10T02:41:37;103204.78;;;2.13;98.34
13612;BME280;6877;51.436;6.774;2023-02-10T02:44:05;103194.34;;;2.11;98.65
13612;BME280;6877;51.436;6.774;2023-02-10T02:49:29;103204.25;;;2.18;99.46
13612;BME280;6877;51.436;6.774;2023-02-10T02:52:05;103208.75;;;2.22;98.69
13612;BME280;6877;51.436;6.774;2023-02-10T02:54:56;103201.91;;;2.23;98.39
13612;BME280;6877;51.436;6.774;2023-02-10T03:00:03;103198.81;;;2.14;98.10
13612;BME280;6877;51.436;6.774;2023-02-10T03:02:32;103187.84;;;2.18;98.91
13612;BME280;6877;51.436;6.774;2023-02-10T03:05:00;103190.91;;;2.27;98.98
13612;BME280;6877;51.436;6.774;2023-02-10T03:07:27;103179.25;;;2.34;98.64
13612;BME280;6877;51.436;6.774;2023-02-10T03:09:53;103176.25;;;2.42;98.93
13612;BME280;6877;51.436;6.774;2023-02-10T03:12:21;103164.53;;;2.49;98.24
13612;BME280;6877;51.436;6.774;2023-02-10T03:14:48;103164.06;;;2.56;98.18
13612;BME280;6877;51.436;6.774;2023-02-10T03:17:14;103167.44;;;2.55;97.43
13612;BME280;6877;51.436;6.774;2023-02-10T03:19:41;103166.25;;;2.48;97.49
13612;BME280;6877;51.436;6.774;2023-02-10T03:22:07;103161.56;;;2.41;97.48
13612;BME280;6877;51.436;6.774;2023-02-10T03:24:34;103172.53;;;2.37;97.53
13612;BME280;6877;51.436;6.774;2023-02-10T03:27:01;103162.81;;;2.33;97.89
13612;BME280;6877;51.436;6.774;2023-02-10T03:29:28;103163.31;;;2.26;97.83
13612;BME280;6877;51.436;6.774;2023-02-10T03:31:54;103156.41;;;2.10;98.06
13612;BME280;6877;51.436;6.774;2023-02-10T03:34:21;103167.06;;;2.00;98.63
13612;BME280;6877;51.436;6.774;2023-02-10T03:36:48;103177.25;;;1.82;98.79
13612;BME280;6877;51.436;6.774;2023-02-10T03:39:15;103180.13;;;1.72;99.68
13612;BME280;6877;51.436;6.774;2023-02-10T03:41:44;103188.16;;;1.61;99.71
13612;BME280;6877;51.436;6.774;2023-02-10T03:44:11;103192.25;;;1.43;99.90
13612;BME280;6877;51.436;6.774;2023-02-10T03:46:38;103193.03;;;1.27;100.00
13612;BME280;6877;51.436;6.774;2023-02-10T03:49:05;103194.63;;;1.10;100.00
13612;BME280;6877;51.436;6.774;2023-02-10T03:51:37;103199.94;;;0.99;100.00
13612;BME280;6877;51.436;6.774;2023-02-10T03:54:04;103192.66;;;0.91;100.00
13612;BME280;6877;51.436;6.774;2023-02-10T03:56:30;103195.75;;;1.01;100.00
13612;BME280;6877;51.436;6.774;2023-02-10T03:59:00;103201.56;;;1.11;100.00
13612;BME280;6877;51.436;6.774;2023-02-10T04:01:32;103199.06;;;1.13;100.00
13612;BME280;6877;51.436;6.774;2023-02-10T04:04:00;103199.53;;;1.21;100.00
13612;BME280;6877;51.436;6.774;2023-02-10T04:06:27;103199.44;;;1.34;100.00
13612;BME280;6877;51.436;6.774;2023-02-10T04:08:53;103201.69;;;1.43;100.00
13612;BME280;6877;51.436;6.774;2023-02-10T04:11:20;103201.66;;;1.57;100.00
13612;BME280;6877;51.436;6.774;2023-02-10T04:13:47;103202.28;;;1.68;100.00
13612;BME280;6877;51.436;6.774;2023-02-10T04:16:15;103200.31;;;1.79;100.00
13612;BME280;6877;51.436;6.774;2023-02-10T04:18:42;103197.59;;;1.92;100.00
13612;BME280;6877;51.436;6.774;2023-02-10T04:21:11;103204.28;;;2.03;100.00
13612;BME280;6877;51.436;6.774;2023-02-10T04:23:38;103202.03;;;2.09;99.98
13612;BME280;6877;51.436;6.774;2023-02-10T04:26:05;103190.97;;;2.12;99.68
13612;BME280;6877;51.436;6.774;2023-02-10T04:28:31;103200.59;;;2.15;99.56
13612;BME280;6877;51.436;6.774;2023-02-10T04:31:00;103204.97;;;2.16;99.37
13612;BME280;6877;51.436;6.774;2023-02-10T04:33:27;103207.38;;;2.13;99.10
13612;BME280;6877;51.436;6.774;2023-02-10T04:35:54;103215.59;;;2.05;98.85
13612;BME280;6877;51.436;6.774;2023-02-10T04:38:21;103209.72;;;1.93;98.89
13612;BME280;6877;51.436;6.774;2023-02-10T04:40:48;103202.34;;;1.84;99.31
13612;BME280;6877;51.436;6.774;2023-02-10T04:43:14;103206.09;;;1.75;99.59
13612;BME280;6877;51.436;6.774;2023-02-10T04:45:44;103211.72;;;1.68;99.74
13612;BME280;6877;51.436;6.774;2023-02-10T04:48:11;103213.31;;;1.66;100.00
13612;BME280;6877;51.436;6.774;2023-02-10T04:50:38;103209.75;;;1.63;100.00
13612;BME280;6877;51.436;6.774;2023-02-10T04:53:05;103205.75;;;1.69;100.00
13612;BME280;6877;51.436;6.774;2023-02-10T04:55:33;103205.28;;;1.76;100.00
13612;BME280;6877;51.436;6.774;2023-02-10T04:58:00;103203.06;;;1.82;100.00
13612;BME280;6877;51.436;6.774;2023-02-10T05:00:28;103205.03;;;1.86;100.00
13612;BME280;6877;51.436;6.774;2023-02-10T05:02:55;103207.75;;;1.89;100.00
13612;BME280;6877;51.436;6.774;2023-02-10T05:05:22;103200.00;;;1.89;99.74
13612;BME280;6877;51.436;6.774;2023-02-10T05:07:51;103206.16;;;1.91;99.94
13612;BME280;6877;51.436;6.774;2023-02-10T05:10:21;103207.94;;;1.92;99.92
13612;BME280;6877;51.436;6.774;2023-02-10T05:12:50;103214.72;;;1.90;99.55
13612;BME280;6877;51.436;6.774;2023-02-10T05:15:17;103212.69;;;1.84;99.65
13612;BME280;6877;51.436;6.774;2023-02-10T05:17:43;103206.28;;;1.78;100.00
13612;BME280;6877;51.436;6.774;2023-02-10T05:20:10;103212.50;;;1.67;99.99
13612;BME280;6877;51.436;6.774;2023-02-10T05:22:38;103216.53;;;1.61;100.00
13612;BME280;6877;51.436;6.774;2023-02-10T05:25:06;103214.38;;;1.54;100.00
13612;BME280;6877;51.436;6.774;2023-02-10T05:27:33;103222.75;;;1.50;100.00
13612;BME280;6877;51.436;6.774;2023-02-10T05:29:59;103221.88;;;1.50;100.00
13612;BME280;6877;51.436;6.774;2023-02-10T05:32:26;103231.03;;;1.45;100.00
13612;BME280;6877;51.436;6.774;2023-02-10T05:34:53;103227.91;;;1.35;100.00
13612;BME280;6877;51.436;6.774;2023-02-10T05:37:20;103225.78;;;1.28;100.00
13612;BME280;6877;51.436;6.774;2023-02-10T05:39:47;103237.34;;;1.20;100.00
13612;BME280;6877;51.436;6.774;2023-02-10T05:42:14;103238.75;;;1.15;100.00
13612;BME280;6877;51.436;6.774;2023-02-10T05:44:41;103240.50;;;1.16;100.00
13612;BME280;6877;51.436;6.774;2023-02-10T05:47:07;103245.97;;;1.21;100.00
13612;BME280;6877;51.436;6.774;2023-02-10T05:49:34;103246.22;;;1.25;100.00
13612;BME280;6877;51.436;6.774;2023-02-10T05:52:01;103241.59;;;1.20;100.00
13612;BME280;6877;51.436;6.774;2023-02-10T05:54:28;103248.94;;;1.13;100.00
13612;BME280;6877;51.436;6.774;2023-02-10T05:56:55;103254.34;;;1.03;100.00
13612;BME280;6877;51.436;6.774;2023-02-10T05:59:22;103248.81;;;0.97;100.00
13612;BME280;6877;51.436;6.774;2023-02-10T06:01:49;103246.59;;;0.88;100.00
13612;BME280;6877;51.436;6.774;2023-02-10T06:04:15;103249.00;;;0.85;100.00
13612;BME280;6877;51.436;6.774;2023-02-10T06:06:42;103252.09;;;0.95;100.00
13612;BME280;6877;51.436;6.774;2023-02-10T06:09:09;103243.59;;;0.96;100.00
13612;BME280;6877;51.436;6.774;2023-02-10T06:11:36;103244.03;;;1.03;100.00
13612;BME280;6877;51.436;6.774;2023-02-10T06:14:03;103243.47;;;1.07;100.00
13612;BME280;6877;51.436;6.774;2023-02-10T06:16:29;103247.66;;;1.20;100.00
13612;BME280;6877;51.436;6.774;2023-02-10T06:18:56;103239.56;;;1.29;100.00
13612;BME280;6877;51.436;6.774;2023-02-10T06:21:22;103243.31;;;1.34;100.00
13612;BME280;6877;51.436;6.774;2023-02-10T06:23:54;103251.22;;;1.37;100.00
13612;BME280;6877;51.436;6.774;2023-02-10T06:26:21;103259.59;;;1.33;100.00
13612;BME280;6877;51.436;6.774;2023-02-10T06:28:52;103258.41;;;1.28;100.00
13612;BME280;6877;51.436;6.774;2023-02-10T06:31:19;103260.44;;;1.19;100.00
13612;BME280;6877;51.436;6.774;2023-02-10T06:33:45;103272.91;;;1.11;100.00
13612;BME280;6877;51.436;6.774;2023-02-10T06:36:17;103274.22;;;1.04;100.00
13612;BME280;6877;51.436;6.774;2023-02-10T06:38:48;103276.41;;;0.98;100.00
13612;BME280;6877;51.436;6.774;2023-02-10T06:41:14;103281.00;;;0.89;100.00
13612;BME280;6877;51.436;6.774;2023-02-10T06:43:41;103268.91;;;0.88;100.00
13612;BME280;6877;51.436;6.774;2023-02-10T06:46:08;103278.50;;;0.90;100.00
13612;BME280;6877;51.436;6.774;2023-02-10T06:48:34;103271.34;;;1.00;100.00
13612;BME280;6877;51.436;6.774;2023-02-10T06:51:01;103269.84;;;1.03;100.00
13612;BME280;6877;51.436;6.774;2023-02-10T06:53:27;103259.25;;;1.13;100.00
13612;BME280;6877;51.436;6.774;2023-02-10T06:55:57;103257.97;;;1.20;100.00
13612;BME280;6877;51.436;6.774;2023-02-10T06:58:29;103260.63;;;1.22;100.00
13612;BME280;6877;51.436;6.774;2023-02-10T07:01:00;103257.97;;;1.20;100.00
13612;BME280;6877;51.436;6.774;2023-02-10T07:03:27;103249.94;;;1.15;100.00
13612;BME280;6877;51.436;6.774;2023-02-10T07:05:54;103252.53;;;1.15;100.00
13612;BME280;6877;51.436;6.774;2023-02-10T07:08:20;103249.94;;;1.15;100.00
13612;BME280;6877;51.436;6.774;2023-02-10T07:10:46;103248.38;;;1.18;100.00
13612;BME280;6877;51.436;6.774;2023-02-10T07:13:18;103248.44;;;1.19;100.00
13612;BME280;6877;51.436;6.774;2023-02-10T07:15:50;103249.25;;;1.18;100.00
13612;BME280;6877;51.436;6.774;2023-02-10T07:18:16;103239.81;;;1.19;100.00
13612;BME280;6877;51.436;6.774;2023-02-10T07:20:43;103254.22;;;1.15;100.00
13612;BME280;6877;51.436;6.774;2023-02-10T07:23:09;103259.13;;;1.10;100.00
13612;BME280;6877;51.436;6.774;2023-02-10T07:25:35;103268.25;;;1.05;100.00
13612;BME280;6877;51.436;6.774;2023-02-10T07:28:02;103274.72;;;0.99;100.00
13612;BME280;6877;51.436;6.774;2023-02-10T07:30:33;103278.69;;;0.93;100.00
13612;BME280;6877;51.436;6.774;2023-02-10T07:33:05;103270.06;;;0.93;100.00
13612;BME280;6877;51.436;6.774;2023-02-10T07:35:31;103268.19;;;0.90;100.00
13612;BME280;6877;51.436;6.774;2023-02-10T07:37:58;103271.41;;;0.86;100.00
13612;BME280;6877;51.436;6.774;2023-02-10T07:40:24;103275.66;;;0.86;100.00
13612;BME280;6877;51.436;6.774;2023-02-10T07:42:54;103280.81;;;0.86;100.00
13612;BME280;6877;51.436;6.774;2023-02-10T07:45:26;103287.84;;;0.88;100.00
13612;BME280;6877;51.436;6.774;2023-02-10T07:47:53;103284.56;;;0.91;100.00
13612;BME280;6877;51.436;6.774;2023-02-10T07:50:19;103283.78;;;0.92;100.00
13612;BME280;6877;51.436;6.774;2023-02-10T07:52:46;103289.91;;;0.94;100.00
13612;BME280;6877;51.436;6.774;2023-02-10T07:55:19;103290.97;;;0.98;100.00
13612;BME280;6877;51.436;6.774;2023-02-10T07:57:45;103292.06;;;1.01;100.00
13612;BME280;6877;51.436;6.774;2023-02-10T08:00:12;103290.75;;;1.08;100.00
13612;BME280;6877;51.436;6.774;2023-02-10T08:02:44;103292.22;;;1.18;100.00
13612;BME280;6877;51.436;6.774;2023-02-10T08:05:10;103281.00;;;1.32;100.00
13612;BME280;6877;51.436;6.774;2023-02-10T08:07:42;103291.63;;;1.51;100.00
13612;BME280;6877;51.436;6.774;2023-02-10T08:10:08;103294.50;;;1.71;100.00
13612;BME280;6877;51.436;6.774;2023-02-10T08:12:34;103303.41;;;1.91;100.00
13612;BME280;6877;51.436;6.774;2023-02-10T08:15:01;103297.59;;;2.09;100.00
13612;BME280;6877;51.436;6.774;2023-02-10T08:17:28;103303.47;;;2.22;99.31
13612;BME280;6877;51.436;6.774;2023-02-10T08:19:59;103301.41;;;2.31;97.96
13612;BME280;6877;51.436;6.774;2023-02-10T08:22:25;103318.50;;;2.29;97.16
13612;BME280;6877;51.436;6.774;2023-02-10T08:24:52;103315.94;;;2.29;96.96
13612;BME280;6877;51.436;6.774;2023-02-10T08:27:18;103321.19;;;2.30;96.78
13612;BME280;6877;51.436;6.774;2023-02-10T08:29:50;103326.13;;;2.42;96.42
13612;BME280;6877;51.436;6.774;2023-02-10T08:32:16;103317.47;;;2.57;95.76
13612;BME280;6877;51.436;6.774;2023-02-10T08:34:46;103323.31;;;2.69;94.18
13612;BME280;6877;51.436;6.774;2023-02-10T08:37:12;103316.25;;;2.81;94.16
13612;BME280;6877;51.436;6.774;2023-02-10T08:39:39;103312.53;;;3.09;93.39
13612;BME280;6877;51.436;6.774;2023-02-10T08:42:06;103319.47;;;3.59;91.51
13612;BME280;6877;51.436;6.774;2023-02-10T08:44:32;103316.63;;;4.23;89.88
13612;BME280;6877;51.436;6.774;2023-02-10T08:47:00;103314.69;;;4.54;85.60
13612;BME280;6877;51.436;6.774;2023-02-10T08:49:26;103318.31;;;4.95;84.79
13612;BME280;6877;51.436;6.774;2023-02-10T08:51:54;103320.91;;;5.34;82.47
13612;BME280;6877;51.436;6.774;2023-02-10T08:54:26;103322.03;;;5.60;80.83
13612;BME280;6877;51.436;6.774;2023-02-10T08:56:58;103310.59;;;5.55;79.02
13612;BME280;6877;51.436;6.774;2023-02-10T08:59:25;103315.44;;;5.28;79.37
13612;BME280;6877;51.436;6.774;2023-02-10T09:01:52;103324.25;;;5.31;80.02
13612;BME280;6877;51.436;6.774;2023-02-10T09:04:23;103329.84;;;5.60;79.07
13612;BME280;6877;51.436;6.774;2023-02-10T09:06:50;103328.16;;;5.81;78.01
13612;BME280;6877;51.436;6.774;2023-02-10T09:09:23;103339.13;;;5.74;77.19
13612;BME280;6877;51.436;6.774;2023-02-10T09:11:51;103330.97;;;5.46;78.00
13612;BME280;6877;51.436;6.774;2023-02-10T09:14:23;103333.78;;;5.92;77.55
13612;BME280;6877;51.436;6.774;2023-02-10T09:16:49;103335.47;;;6.53;75.76
13612;BME280;6877;51.436;6.774;2023-02-10T09:19:22;103330.59;;;7.07;73.08
13612;BME280;6877;51.436;6.774;2023-02-10T09:21:54;103329.16;;;7.39;71.20
13612;BME280;6877;51.436;6.774;2023-02-10T09:24:24;103333.00;;;7.75;70.75
13612;BME280;6877;51.436;6.774;2023-02-10T09:26:50;103334.34;;;8.15;68.63
13612;BME280;6877;51.436;6.774;2023-02-10T09:29:17;103340.50;;;8.17;67.30
13612;BME280;6877;51.436;6.774;2023-02-10T09:31:48;103344.41;;;8.29;67.59
13612;BME280;6877;51.436;6.774;2023-02-10T09:34:15;103344.59;;;8.63;66.20
13612;BME280;6877;51.436;6.774;2023-02-10T09:36:46;103347.53;;;9.02;64.99
13612;BME280;6877;51.436;6.774;2023-02-10T09:39:12;103355.88;;;9.20;64.41
13612;BME280;6877;51.436;6.774;2023-02-10T09:41:51;103350.22;;;9.35;63.88
13612;BME280;6877;51.436;6.774;2023-02-10T09:44:33;103349.88;;;9.55;63.23
13612;BME280;6877;51.436;6.774;2023-02-10T09:50:03;103329.94;;;9.58;62.09
13612;BME280;6877;51.436;6.774;2023-02-10T09:55:20;103328.06;;;9.21;62.93
13612;BME280;6877;51.436;6.774;2023-02-10T09:57:52;103327.94;;;8.86;63.67
13612;BME280;6877;51.436;6.774;2023-02-10T10:00:30;103325.56;;;8.67;64.60
13612;BME280;6877;51.436;6.774;2023-02-10T10:03:06;103325.56;;;8.38;65.44
13612;BME280;6877;51.436;6.774;2023-02-10T10:11:23;103332.44;;;10.21;62.25
13612;BME280;6877;51.436;6.774;2023-02-10T10:13:56;103333.41;;;11.45;58.83
13612;BME280;6877;51.436;6.774;2023-02-10T10:16:43;103322.50;;;12.20;56.22
13612;BME280;6877;51.436;6.774;2023-02-10T10:19:32;103333.94;;;12.25;55.46
13612;BME280;6877;51.436;6.774;2023-02-10T10:22:38;103323.00;;;12.54;53.47
13612;BME280;6877;51.436;6.774;2023-02-10T10:30:43;103332.94;;;13.45;50.51
13612;BME280;6877;51.436;6.774;2023-02-10T10:35:48;103340.09;;;14.60;47.53
13612;BME280;6877;51.436;6.774;2023-02-10T10:38:20;103343.69;;;14.81;46.18
13612;BME280;6877;51.436;6.774;2023-02-10T10:40:52;103342.75;;;14.67;46.04
13612;BME280;6877;51.436;6.774;2023-02-10T10:43:28;103341.78;;;14.52;45.87
13612;BME280;6877;51.436;6.774;2023-02-10T10:46:01;103335.03;;;15.06;44.96
13612;BME280;6877;51.436;6.774;2023-02-10T10:48:30;103336.84;;;15.14;43.99
13612;BME280;6877;51.436;6.774;2023-02-10T10:51:03;103334.97;;;14.90;44.28
13612;BME280;6877;51.436;6.774;2023-02-10T10:53:54;103338.47;;;14.86;44.25
13612;BME280;6877;51.436;6.774;2023-02-10T10:56:51;103335.09;;;15.20;43.59
13612;BME280;6877;51.436;6.774;2023-02-10T10:59:34;103333.41;;;15.39;43.10
13612;BME280;6877;51.436;6.774;2023-02-10T11:04:40;103320.03;;;14.89;43.26
13612;BME280;6877;51.436;6.774;2023-02-10T11:07:09;103322.59;;;14.75;43.75
13612;BME280;6877;51.436;6.774;2023-02-10T11:09:41;103323.84;;;14.05;44.90
13612;BME280;6877;51.436;6.774;2023-02-10T11:12:21;103321.63;;;12.82;47.61
13612;BME280;6877;51.436;6.774;2023-02-10T11:14:51;103318.31;;;11.80;50.51
13612;BME280;6877;51.436;6.774;2023-02-10T11:17:36;103318.97;;;10.79;53.78
13612;BME280;6877;51.436;6.774;2023-02-10T11:22:31;103313.63;;;9.67;57.56
13612;BME280;6877;51.436;6.774;2023-02-10T11:25:00;103305.00;;;9.38;58.67
13612;BME280;6877;51.436;6.774;2023-02-10T11:27:27;103304.03;;;9.34;59.18
13612;BME280;6877;51.436;6.774;2023-02-10T11:29:58;103297.25;;;9.41;59.45
13612;BME280;6877;51.436;6.774;2023-02-10T11:32:30;103285.31;;;9.19;59.78
13612;BME280;6877;51.436;6.774;2023-02-10T11:35:00;103289.75;;;8.91;60.97
13612;BME280;6877;51.436;6.774;2023-02-10T11:37:36;103291.13;;;8.78;61.93
13612;BME280;6877;51.436;6.774;2023-02-10T11:40:23;103275.53;;;8.80;61.70
13612;BME280;6877;51.436;6.774;2023-02-10T11:42:57;103274.56;;;8.76;61.21
13612;BME280;6877;51.436;6.774;2023-02-10T11:45:31;103281.53;;;8.77;60.75
13612;BME280;6877;51.436;6.774;2023-02-10T11:48:13;103280.84;;;8.54;60.11
13612;BME280;6877;51.436;6.774;2023-02-10T11:50:47;103283.19;;;8.45;60.39
13612;BME280;6877;51.436;6.774;2023-02-10T11:53:28;103280.56;;;8.45;60.21
13612;BME280;6877;51.436;6.774;2023-02-10T11:57:04;103277.97;;;8.45;60.16
13612;BME280;6877;51.436;6.774;2023-02-10T11:59:27;103270.03;;;8.42;60.33
13612;BME280;6877;51.436;6.774;2023-02-10T12:02:03;103263.88;;;8.40;60.23
13612;BME280;6877;51.436;6.774;2023-02-10T12:05:03;103270.59;;;8.33;60.07
13612;BME280;6877;51.436;6.774;2023-02-10T12:07:56;103261.59;;;8.24;59.86
13612;BME280;6877;51.436;6.774;2023-02-10T12:16:59;103235.44;;;7.66;60.60
13612;BME280;6877;51.436;6.774;2023-02-10T12:27:19;103212.22;;;7.74;59.66
13612;BME280;6877;51.436;6.774;2023-02-10T12:32:26;103216.50;;;7.99;58.53
13612;BME280;6877;51.436;6.774;2023-02-10T12:53:57;103199.78;;;7.94;55.04
13612;BME280;6877;51.436;6.774;2023-02-10T12:56:33;103206.53;;;7.87;54.84
13612;BME280;6877;51.436;6.774;2023-02-10T12:59:13;103201.88;;;7.77;55.94
13612;BME280;6877;51.436;6.774;2023-02-10T13:01:45;103200.69;;;7.68;57.37
13612;BME280;6877;51.436;6.774;2023-02-10T13:04:27;103197.97;;;7.63;57.69
13612;BME280;6877;51.436;6.774;2023-02-10T13:07:04;103198.75;;;7.60;58.79
13612;BME280;6877;51.436;6.774;2023-02-10T13:09:45;103206.59;;;7.62;59.17
13612;BME280;6877;51.436;6.774;2023-02-10T13:12:22;103202.97;;;7.57;57.97
13612;BME280;6877;51.436;6.774;2023-02-10T13:14:54;103199.41;;;7.55;58.04
13612;BME280;6877;51.436;6.774;2023-02-10T13:17:27;103196.84;;;7.56;57.88
13612;BME280;6877;51.436;6.774;2023-02-10T13:20:08;103198.75;;;7.60;58.26
13612;BME280;6877;51.436;6.774;2023-02-10T13:28:48;103174.09;;;7.51;59.37
13612;BME280;6877;51.436;6.774;2023-02-10T13:36:41;103177.38;;;7.45;61.75
13612;BME280;6877;51.436;6.774;2023-02-10T13:39:23;103166.06;;;7.45;61.96
13612;BME280;6877;51.436;6.774;2023-02-10T13:42:34;103165.38;;;7.50;62.33
13612;BME280;6877;51.436;6.774;2023-02-10T13:45:15;103169.47;;;7.69;61.82
13612;BME280;6877;51.436;6.774;2023-02-10T13:47:54;103160.91;;;7.73;62.04
13612;BME280;6877;51.436;6.774;2023-02-10T13:50:26;103149.53;;;7.70;62.06
13612;BME280;6877;51.436;6.774;2023-02-10T14:00:49;103150.53;;;7.75;62.33
13612;BME280;6877;51.436;6.774;2023-02-10T14:08:44;103138.81;;;7.89;61.38
13612;BME280;6877;51.436;6.774;2023-02-10T14:13:44;103155.31;;;8.17;59.98
13612;BME280;6877;51.436;6.774;2023-02-10T14:16:36;103149.91;;;8.10;60.19
13612;BME280;6877;51.436;6.774;2023-02-10T14:19:24;103137.78;;;8.12;60.22
13612;BME280;6877;51.436;6.774;2023-02-10T14:21:56;103132.84;;;8.22;59.69
13612;BME280;6877;51.436;6.774;2023-02-10T14:24:27;103141.63;;;8.25;59.41
13612;BME280;6877;51.436;6.774;2023-02-10T14:26:56;103131.16;;;8.24;59.52
13612;BME280;6877;51.436;6.774;2023-02-10T14:29:26;103124.13;;;8.21;59.42
13612;BME280;6877;51.436;6.774;2023-02-10T14:31:57;103127.53;;;8.19;59.24
13612;BME280;6877;51.436;6.774;2023-02-10T14:34:31;103124.63;;;8.08;59.71
13612;BME280;6877;51.436;6.774;2023-02-10T14:39:30;103136.50;;;7.70;60.93
13612;BME280;6877;51.436;6.774;2023-02-10T14:41:59;103137.84;;;7.58;61.55
13612;BME280;6877;51.436;6.774;2023-02-10T14:44:41;103133.22;;;7.50;61.99
13612;BME280;6877;51.436;6.774;2023-02-10T14:47:20;103140.13;;;7.48;62.25
13612;BME280;6877;51.436;6.774;2023-02-10T14:49:54;103142.75;;;7.49;62.45
13612;BME280;6877;51.436;6.774;2023-02-10T14:52:30;103147.97;;;7.49;62.54
13612;BME280;6877;51.436;6.774;2023-02-10T14:54:58;103146.22;;;7.48;62.91
13612;BME280;6877;51.436;6.774;2023-02-10T14:57:26;103140.81;;;7.42;63.01
13612;BME280;6877;51.436;6.774;2023-02-10T14:59:59;103137.16;;;7.37;62.95
13612;BME280;6877;51.436;6.774;2023-02-10T15:02:31;103141.25;;;7.29;63.16
13612;BME280;6877;51.436;6.774;2023-02-10T15:05:07;103137.47;;;7.20;63.49
13612;BME280;6877;51.436;6.774;2023-02-10T15:07:45;103141.63;;;7.15;63.88
13612;BME280;6877;51.436;6.774;2023-02-10T15:10:37;103138.13;;;7.13;63.80
13612;BME280;6877;51.436;6.774;2023-02-10T15:13:11;103136.44;;;7.15;64.09
13612;BME280;6877;51.436;6.774;2023-02-10T15:15:43;103123.59;;;7.20;63.91
13612;BME280;6877;51.436;6.774;2023-02-10T15:18:27;103133.44;;;7.29;63.88
13612;BME280;6877;51.436;6.774;2023-02-10T15:21:05;103138.63;;;7.29;63.80
13612;BME280;6877;51.436;6.774;2023-02-10T15:23:52;103139.22;;;7.20;64.01